Time;durP1;ratioP1;P1;durP2;ratioP2;P2;SDS_P1;SDS_P2;PMS_P1;PMS_P2;Temp;Humidity;BMP_temperature;BMP_pressure;BME280_temperature;BME280_humidity;BME280_pressure;Samples;Min_cycle;Max_cycle;Signal;HPM_P1;HPM_P2
2021/09/19 00:01:57;;;;;;;9.70;5.60;;;;;;;;;;5019164;28;20207;-76
2021/09/19 00:04:24;;;;;;;11.33;5.37;;;;;;;;;;5019078;28;20220;-75
2021/09/19 00:06:51;;;;;;;6.60;4.40;;;;;;;;;;5020851;28;20270;-75
2021/09/19 00:09:18;;;;;;;11.30;5.63;;;;;;;;;;5019558;28;20293;-75
2021/09/19 00:11:45;;;;;;;9.97;4.97;;;;;;;;;;5019632;28;20291;-78
2021/09/19 00:14:14;;;;;;;8.50;4.33;;;;;;;;;;5018125;28;20206;-78
2021/09/19 00:16:41;;;;;;;13.13;4.43;;;;;;;;;;5024667;28;20213;-78
2021/09/19 00:19:09;;;;;;;8.80;5.03;;;;;;;;;;5040125;28;20272;-79
2021/09/19 00:21:36;;;;;;;10.00;4.43;;;;;;;;;;5028908;28;20209;-78
2021/09/19 00:24:04;;;;;;;9.07;4.67;;;;;;;;;;5020629;28;20738;-78
2021/09/19 00:26:31;;;;;;;7.83;4.70;;;;;;;;;;5023844;28;20219;-78
2021/09/19 00:28:58;;;;;;;8.93;5.50;;;;;;;;;;5020681;28;20309;-77
2021/09/19 00:31:27;;;;;;;8.07;5.17;;;;;;;;;;5022586;28;20253;-79
2021/09/19 00:33:54;;;;;;;7.93;4.80;;;;;;;;;;5021228;28;20239;-78
2021/09/19 00:36:21;;;;;;;10.90;6.47;;;;;;;;;;5024731;28;20226;-78
2021/09/19 00:38:48;;;;;;;9.97;5.70;;;;;;;;;;5020999;28;20208;-79
2021/09/19 00:41:16;;;;;;;10.60;5.73;;;;;;;;;;5024863;28;20588;-78
2021/09/19 00:43:43;;;;;;;11.50;5.67;;;;;;;;;;5017477;28;20651;-79
2021/09/19 00:46:10;;;;;;;7.30;4.77;;;;;;;;;;5023862;28;20251;-81
2021/09/19 00:48:39;;;;;;;12.53;5.63;;;;;;;;;;5029493;28;20238;-78
2021/09/19 00:51:06;;;;;;;8.30;4.80;;;;;;;;;;5028595;28;20195;-79
2021/09/19 00:53:34;;;;;;;10.37;5.27;;;;;;;;;;5028109;28;20298;-78
2021/09/19 00:56:01;;;;;;;10.70;4.87;;;;;;;;;;5021571;28;20222;-78
2021/09/19 00:58:29;;;;;;;10.87;5.50;;;;;;;;;;5023603;28;20306;-78
2021/09/19 01:00:56;;;;;;;9.60;4.40;;;;;;;;;;5022951;28;20204;-77
2021/09/19 01:03:23;;;;;;;10.77;4.43;;;;;;;;;;5018914;28;20250;-76
2021/09/19 01:05:52;;;;;;;7.13;4.20;;;;;;;;;;5020116;28;20255;-76
2021/09/19 01:08:19;;;;;;;10.10;4.50;;;;;;;;;;5017404;28;20219;-76
2021/09/19 01:10:47;;;;;;;8.17;4.83;;;;;;;;;;5019022;28;20295;-76
2021/09/19 01:13:14;;;;;;;7.93;4.50;;;;;;;;;;5019630;28;20290;-77
2021/09/19 01:15:42;;;;;;;9.80;4.43;;;;;;;;;;5017240;28;20719;-76
2021/09/19 01:18:09;;;;;;;10.87;4.30;;;;;;;;;;5016164;28;20224;-76
2021/09/19 01:20:37;;;;;;;6.13;3.93;;;;;;;;;;5019165;28;20895;-76
2021/09/19 01:23:09;;;;;;;7.03;4.17;;;;;;;;;;5017667;28;20749;-77
2021/09/19 01:25:38;;;;;;;10.27;4.17;;;;;;;;;;5020691;28;20270;-76
2021/09/19 01:28:05;;;;;;;7.23;4.33;;;;;;;;;;5020438;28;20224;-76
2021/09/19 01:30:33;;;;;;;8.83;3.97;;;;;;;;;;5019276;28;20679;-77
2021/09/19 01:33:00;;;;;;;7.53;3.50;;;;;;;;;;5018733;28;20760;-76
2021/09/19 01:35:27;;;;;;;8.77;3.80;;;;;;;;;;5017483;28;20236;-77
2021/09/19 01:37:56;;;;;;;4.80;3.10;;;;;;;;;;5013656;28;20661;-77
2021/09/19 01:40:23;;;;;;;6.27;3.90;;;;;;;;;;5019315;28;20203;-77
2021/09/19 01:42:52;;;;;;;8.53;3.03;;;;;;;;;;5018741;28;20240;-77
2021/09/19 01:45:19;;;;;;;6.30;3.30;;;;;;;;;;5018460;28;20220;-77
2021/09/19 01:47:46;;;;;;;7.00;3.07;;;;;;;;;;5019780;28;20233;-77
2021/09/19 01:50:13;;;;;;;4.97;3.40;;;;;;;;;;5014742;28;20592;-77
2021/09/19 01:52:40;;;;;;;8.87;3.50;;;;;;;;;;5015541;28;20663;-77
2021/09/19 01:55:08;;;;;;;8.50;3.60;;;;;;;;;;5016754;28;20219;-77
2021/09/19 01:57:35;;;;;;;6.23;3.47;;;;;;;;;;5016181;28;20203;-77
2021/09/19 02:00:04;;;;;;;5.60;3.70;;;;;;;;;;5016658;28;20277;-77
2021/09/19 02:02:34;;;;;;;9.80;3.60;;;;;;;;;;5018304;23;20604;-83
2021/09/19 02:05:02;;;;;;;7.00;3.73;;;;;;;;;;5022648;28;20232;-83
2021/09/19 02:07:30;;;;;;;5.00;3.37;;;;;;;;;;5013590;28;20708;-82
2021/09/19 02:09:57;;;;;;;5.53;3.30;;;;;;;;;;5014696;28;20218;-84
2021/09/19 02:12:24;;;;;;;5.13;3.30;;;;;;;;;;5002275;28;20332;-83
2021/09/19 02:14:52;;;;;;;5.80;3.40;;;;;;;;;;4987889;28;20209;-83
2021/09/19 02:17:21;;;;;;;6.87;3.50;;;;;;;;;;4988217;28;20241;-81
2021/09/19 02:19:50;;;;;;;6.23;3.73;;;;;;;;;;4989144;28;20220;-82
2021/09/19 02:22:18;;;;;;;5.93;3.17;;;;;;;;;;4987417;28;20347;-81
2021/09/19 02:24:46;;;;;;;4.83;3.27;;;;;;;;;;4987330;28;20251;-82
2021/09/19 02:27:13;;;;;;;6.17;3.63;;;;;;;;;;4987973;28;20735;-81
2021/09/19 02:29:41;;;;;;;4.90;3.30;;;;;;;;;;4988970;28;20216;-83
2021/09/19 02:32:08;;;;;;;9.33;3.30;;;;;;;;;;4986758;28;20303;-83
2021/09/19 02:34:36;;;;;;;5.80;3.13;;;;;;;;;;4987050;28;20229;-81
2021/09/19 02:37:04;;;;;;;5.57;3.27;;;;;;;;;;4988217;28;20212;-83
2021/09/19 02:39:31;;;;;;;5.20;3.17;;;;;;;;;;4988675;28;20216;-82
2021/09/19 02:41:58;;;;;;;6.23;3.60;;;;;;;;;;4985562;28;20228;-84
2021/09/19 02:44:26;;;;;;;6.10;2.90;;;;;;;;;;4990852;28;20211;-82
2021/09/19 02:46:53;;;;;;;4.53;2.63;;;;;;;;;;4990865;28;20229;-82
2021/09/19 02:49:20;;;;;;;6.53;3.50;;;;;;;;;;4991793;28;20209;-82
2021/09/19 02:51:48;;;;;;;4.73;3.13;;;;;;;;;;4991142;28;20681;-83
2021/09/19 02:54:16;;;;;;;4.77;2.97;;;;;;;;;;4991894;28;21047;-82
2021/09/19 02:56:43;;;;;;;7.40;2.70;;;;;;;;;;4990724;28;20284;-83
2021/09/19 02:59:10;;;;;;;3.77;2.57;;;;;;;;;;4990561;28;20220;-81
2021/09/19 03:01:37;;;;;;;8.17;3.57;;;;;;;;;;4989956;28;20319;-83
2021/09/19 03:04:04;;;;;;;4.50;2.70;;;;;;;;;;4990733;28;20211;-83
2021/09/19 03:06:32;;;;;;;4.50;2.90;;;;;;;;;;4992525;28;21081;-81
2021/09/19 03:09:00;;;;;;;7.13;2.73;;;;;;;;;;4990231;28;20296;-83
2021/09/19 03:11:28;;;;;;;4.90;2.70;;;;;;;;;;5006972;28;20209;-79
2021/09/19 03:13:55;;;;;;;3.90;2.47;;;;;;;;;;5010950;28;20211;-79
2021/09/19 03:16:22;;;;;;;8.27;2.77;;;;;;;;;;5007910;28;20230;-82
2021/09/19 03:18:49;;;;;;;4.40;2.43;;;;;;;;;;4989963;28;20283;-83
2021/09/19 03:21:17;;;;;;;7.90;2.47;;;;;;;;;;4990004;28;20281;-82
2021/09/19 03:23:44;;;;;;;3.87;2.30;;;;;;;;;;4990404;28;20714;-83
2021/09/19 03:26:12;;;;;;;3.40;2.33;;;;;;;;;;4994285;28;20296;-80
2021/09/19 03:28:40;;;;;;;6.47;2.60;;;;;;;;;;4995792;28;20256;-82
2021/09/19 03:31:07;;;;;;;4.37;2.53;;;;;;;;;;4995718;28;20703;-81
2021/09/19 03:33:34;;;;;;;3.77;2.50;;;;;;;;;;4991762;28;20307;-82
2021/09/19 03:36:01;;;;;;;5.67;2.20;;;;;;;;;;4993851;28;20590;-82
2021/09/19 03:38:28;;;;;;;6.00;2.77;;;;;;;;;;4993725;28;20361;-81
2021/09/19 03:40:55;;;;;;;5.70;2.47;;;;;;;;;;4990906;28;20197;-81
2021/09/19 03:43:24;;;;;;;6.37;2.70;;;;;;;;;;4992351;28;20236;-82
2021/09/19 03:45:51;;;;;;;6.50;2.47;;;;;;;;;;4991910;28;20219;-80
2021/09/19 03:48:18;;;;;;;4.33;2.60;;;;;;;;;;4995864;28;20267;-82
2021/09/19 03:50:46;;;;;;;3.43;2.47;;;;;;;;;;4991159;28;20228;-81
2021/09/19 03:53:13;;;;;;;4.27;2.27;;;;;;;;;;4988395;28;20223;-81
2021/09/19 03:55:40;;;;;;;3.97;2.50;;;;;;;;;;4987944;28;20304;-82
2021/09/19 03:58:07;;;;;;;3.07;2.23;;;;;;;;;;4988321;28;20323;-81
2021/09/19 04:00:36;;;;;;;5.40;2.33;;;;;;;;;;4987797;28;20583;-82
2021/09/19 04:03:03;;;;;;;4.90;2.37;;;;;;;;;;4988395;28;20240;-81
2021/09/19 04:05:30;;;;;;;3.33;2.27;;;;;;;;;;4988525;28;20964;-80
2021/09/19 04:07:57;;;;;;;2.90;2.20;;;;;;;;;;4990197;28;20649;-81
2021/09/19 04:10:25;;;;;;;5.40;2.57;;;;;;;;;;4989929;28;20223;-80
2021/09/19 04:12:52;;;;;;;3.87;2.50;;;;;;;;;;4989471;28;21061;-80
2021/09/19 04:15:19;;;;;;;3.43;2.20;;;;;;;;;;4989790;28;20700;-80
2021/09/19 04:17:47;;;;;;;2.97;2.33;;;;;;;;;;4991847;28;20204;-81
2021/09/19 04:20:15;;;;;;;4.37;2.27;;;;;;;;;;4988627;28;20300;-81
2021/09/19 04:22:42;;;;;;;4.13;2.23;;;;;;;;;;4989540;28;20697;-81
2021/09/19 04:25:10;;;;;;;3.80;2.30;;;;;;;;;;4990393;28;20212;-81
2021/09/19 04:27:38;;;;;;;7.60;2.50;;;;;;;;;;4991226;28;20224;-82
2021/09/19 04:30:06;;;;;;;3.47;2.43;;;;;;;;;;4991112;28;20205;-81
2021/09/19 04:32:33;;;;;;;3.43;2.40;;;;;;;;;;4992562;28;20260;-82
2021/09/19 04:35:01;;;;;;;4.63;2.17;;;;;;;;;;4994452;28;20209;-82
2021/09/19 04:37:29;;;;;;;6.17;2.53;;;;;;;;;;4994614;28;20268;-82
2021/09/19 04:39:56;;;;;;;3.83;2.40;;;;;;;;;;4995412;28;21397;-82
2021/09/19 04:42:23;;;;;;;3.73;2.07;;;;;;;;;;4994314;28;20223;-81
2021/09/19 04:44:51;;;;;;;3.63;2.53;;;;;;;;;;4995152;28;20205;-83
2021/09/19 04:47:18;;;;;;;6.30;2.50;;;;;;;;;;4996629;28;21467;-82
2021/09/19 04:49:46;;;;;;;4.90;2.70;;;;;;;;;;4997577;28;20211;-82
2021/09/19 04:52:14;;;;;;;9.17;2.40;;;;;;;;;;4997675;28;20320;-82
2021/09/19 04:54:41;;;;;;;2.87;2.20;;;;;;;;;;5006707;28;20307;-80
2021/09/19 04:57:09;;;;;;;2.97;2.10;;;;;;;;;;5013936;28;20221;-80
2021/09/19 04:59:37;;;;;;;6.07;2.27;;;;;;;;;;5013582;28;20223;-80
2021/09/19 05:02:04;;;;;;;7.13;2.47;;;;;;;;;;4991219;28;20247;-81
2021/09/19 05:04:32;;;;;;;4.37;2.80;;;;;;;;;;4992048;28;20208;-81
2021/09/19 05:06:59;;;;;;;7.80;2.53;;;;;;;;;;4988882;28;20252;-82
2021/09/19 05:09:27;;;;;;;6.13;2.43;;;;;;;;;;4990809;28;20213;-81
2021/09/19 05:11:54;;;;;;;3.30;2.40;;;;;;;;;;4988935;28;20293;-81
2021/09/19 05:14:22;;;;;;;4.07;2.53;;;;;;;;;;4989220;28;20215;-82
2021/09/19 05:16:49;;;;;;;4.50;2.50;;;;;;;;;;4989525;28;20209;-80
2021/09/19 05:19:16;;;;;;;5.80;2.93;;;;;;;;;;4989003;28;20287;-81
2021/09/19 05:21:43;;;;;;;6.17;2.77;;;;;;;;;;4988536;28;20677;-82
2021/09/19 05:24:11;;;;;;;4.70;2.60;;;;;;;;;;4993094;28;20209;-82
2021/09/19 05:26:39;;;;;;;4.67;2.60;;;;;;;;;;4993338;28;20563;-81
2021/09/19 05:29:06;;;;;;;5.83;3.00;;;;;;;;;;4994293;28;20228;-81
2021/09/19 05:31:33;;;;;;;4.30;2.70;;;;;;;;;;4991476;28;20304;-82
2021/09/19 05:34:01;;;;;;;4.00;2.67;;;;;;;;;;4995421;28;20277;-82
2021/09/19 05:36:28;;;;;;;4.10;2.87;;;;;;;;;;4995924;28;20209;-82
2021/09/19 05:38:56;;;;;;;5.67;2.70;;;;;;;;;;4993763;28;20248;-82
2021/09/19 05:41:23;;;;;;;5.90;2.43;;;;;;;;;;4992492;28;20213;-82
2021/09/19 05:43:51;;;;;;;6.70;3.20;;;;;;;;;;4992219;28;20279;-83
2021/09/19 05:46:19;;;;;;;3.90;2.70;;;;;;;;;;4993242;28;20233;-81
2021/09/19 05:48:46;;;;;;;6.90;2.30;;;;;;;;;;4992073;28;20284;-83
2021/09/19 05:51:13;;;;;;;7.07;2.90;;;;;;;;;;4992970;28;20379;-83
2021/09/19 05:53:40;;;;;;;4.23;2.33;;;;;;;;;;4991248;28;20201;-83
2021/09/19 05:56:07;;;;;;;5.67;2.33;;;;;;;;;;4993150;28;20230;-83
2021/09/19 05:58:34;;;;;;;5.53;2.67;;;;;;;;;;4993000;28;20543;-82
2021/09/19 06:01:03;;;;;;;5.40;2.30;;;;;;;;;;4991066;28;20213;-81
2021/09/19 06:03:30;;;;;;;5.13;2.60;;;;;;;;;;4989336;28;20307;-82
2021/09/19 06:05:57;;;;;;;5.33;2.57;;;;;;;;;;4986880;28;20211;-82
2021/09/19 06:08:24;;;;;;;4.40;2.60;;;;;;;;;;4988412;28;20319;-81
2021/09/19 06:10:52;;;;;;;4.30;2.20;;;;;;;;;;4986935;28;20296;-82
2021/09/19 06:13:19;;;;;;;5.73;2.67;;;;;;;;;;4986956;28;20634;-83
2021/09/19 06:15:46;;;;;;;4.27;2.50;;;;;;;;;;4987592;28;20209;-81
2021/09/19 06:18:15;;;;;;;3.27;2.23;;;;;;;;;;4986933;28;20278;-81
2021/09/19 06:20:42;;;;;;;3.77;2.20;;;;;;;;;;4986046;28;20626;-83
2021/09/19 06:23:09;;;;;;;5.20;2.17;;;;;;;;;;4984524;28;20310;-82
2021/09/19 06:25:36;;;;;;;2.47;2.17;;;;;;;;;;4984532;28;20224;-83
2021/09/19 06:28:04;;;;;;;3.17;2.30;;;;;;;;;;4985994;28;20227;-83
2021/09/19 06:30:31;;;;;;;3.53;2.10;;;;;;;;;;4983654;28;20215;-83
2021/09/19 06:32:58;;;;;;;3.97;2.73;;;;;;;;;;4983786;28;20713;-81
2021/09/19 06:35:27;;;;;;;3.47;2.37;;;;;;;;;;4982278;28;20639;-83
2021/09/19 06:37:54;;;;;;;4.20;2.40;;;;;;;;;;4992403;28;20832;-81
2021/09/19 06:40:22;;;;;;;3.67;2.47;;;;;;;;;;5008026;28;20288;-81
2021/09/19 06:42:49;;;;;;;3.37;2.10;;;;;;;;;;5006592;28;20207;-80
2021/09/19 06:45:16;;;;;;;4.43;2.03;;;;;;;;;;4988654;28;20288;-83
2021/09/19 06:47:43;;;;;;;6.13;2.50;;;;;;;;;;4986821;28;20210;-84
2021/09/19 06:50:12;;;;;;;3.27;2.30;;;;;;;;;;4987958;28;20244;-83
2021/09/19 06:52:41;;;;;;;5.57;2.30;;;;;;;;;;4988610;28;20296;-82
2021/09/19 06:55:08;;;;;;;6.80;2.80;;;;;;;;;;4986182;28;20661;-84
2021/09/19 06:57:36;;;;;;;6.57;2.63;;;;;;;;;;4987660;28;20292;-82
2021/09/19 07:00:03;;;;;;;3.00;2.40;;;;;;;;;;4991243;28;20205;-84
2021/09/19 07:02:30;;;;;;;3.60;2.40;;;;;;;;;;4989539;28;20304;-84
2021/09/19 07:04:58;;;;;;;4.77;2.40;;;;;;;;;;4991695;28;20513;-84
2021/09/19 07:07:25;;;;;;;7.70;2.90;;;;;;;;;;4985739;28;20240;-80
2021/09/19 07:09:54;;;;;;;5.47;2.90;;;;;;;;;;4987169;28;20243;-83
2021/09/19 07:12:21;;;;;;;6.60;2.53;;;;;;;;;;4987190;28;20249;-82
2021/09/19 07:14:48;;;;;;;4.67;3.37;;;;;;;;;;4983467;28;20209;-82
2021/09/19 07:17:16;;;;;;;7.87;3.30;;;;;;;;;;4987868;28;20229;-83
2021/09/19 07:19:43;;;;;;;6.70;4.13;;;;;;;;;;4985822;28;20202;-84
2021/09/19 07:22:10;;;;;;;10.70;5.57;;;;;;;;;;4985260;28;20252;-83
2021/09/19 07:24:38;;;;;;;9.70;5.33;;;;;;;;;;4988325;28;20213;-84
2021/09/19 07:27:07;;;;;;;9.77;6.00;;;;;;;;;;4988671;28;20584;-83
2021/09/19 07:29:34;;;;;;;6.57;4.27;;;;;;;;;;4987548;28;20232;-82
2021/09/19 07:32:02;;;;;;;12.30;6.10;;;;;;;;;;4990988;28;20230;-82
2021/09/19 07:34:29;;;;;;;12.47;5.87;;;;;;;;;;4989559;28;20212;-81
2021/09/19 07:36:57;;;;;;;10.97;6.70;;;;;;;;;;4990304;28;20650;-84
2021/09/19 07:39:24;;;;;;;9.10;5.40;;;;;;;;;;4990611;28;20209;-83
2021/09/19 07:41:53;;;;;;;11.13;7.23;;;;;;;;;;4988894;28;20300;-84
2021/09/19 07:44:23;;;;;;;10.40;5.50;;;;;;;;;;4988284;28;20225;-83
2021/09/19 07:46:50;;;;;;;11.27;5.90;;;;;;;;;;4989218;28;20752;-84
2021/09/19 07:49:18;;;;;;;10.10;6.40;;;;;;;;;;4988991;28;20213;-84
2021/09/19 07:51:45;;;;;;;12.77;6.47;;;;;;;;;;4995278;28;20300;-84
2021/09/19 07:54:12;;;;;;;9.57;5.97;;;;;;;;;;4995682;28;20234;-83
2021/09/19 07:56:40;;;;;;;14.07;6.27;;;;;;;;;;4994269;28;20240;-84
2021/09/19 07:59:07;;;;;;;10.37;6.20;;;;;;;;;;4992584;28;20716;-83
2021/09/19 08:01:35;;;;;;;11.00;5.57;;;;;;;;;;4993156;28;20229;-84
2021/09/19 08:04:03;;;;;;;8.50;5.40;;;;;;;;;;4993664;28;20209;-83
2021/09/19 08:06:30;;;;;;;11.07;5.77;;;;;;;;;;4993971;28;20269;-84
2021/09/19 08:08:57;;;;;;;10.10;5.57;;;;;;;;;;4995976;28;20293;-83
2021/09/19 08:11:24;;;;;;;8.57;5.60;;;;;;;;;;4995781;28;20220;-85
2021/09/19 08:13:56;;;;;;;13.33;5.33;;;;;;;;;;4995430;28;20241;-84
2021/09/19 08:16:23;;;;;;;9.20;5.40;;;;;;;;;;4994044;28;20686;-83
2021/09/19 08:18:52;;;;;;;9.40;5.87;;;;;;;;;;4996126;28;20225;-84
2021/09/19 08:21:19;;;;;;;9.47;5.63;;;;;;;;;;5002036;28;20265;-82
2021/09/19 08:23:46;;;;;;;9.90;5.47;;;;;;;;;;5007529;28;20185;-81
2021/09/19 08:26:13;;;;;;;8.20;5.20;;;;;;;;;;5010053;28;20245;-82
2021/09/19 08:28:40;;;;;;;8.63;5.37;;;;;;;;;;4995853;28;20221;-83
2021/09/19 08:31:08;;;;;;;7.33;4.80;;;;;;;;;;4994463;28;20237;-83
2021/09/19 08:33:35;;;;;;;9.13;5.53;;;;;;;;;;4992884;28;20319;-85
2021/09/19 08:36:03;;;;;;;8.50;5.20;;;;;;;;;;4992557;28;20704;-83
2021/09/19 08:38:30;;;;;;;6.60;4.63;;;;;;;;;;4993846;28;20215;-85
2021/09/19 08:40:58;;;;;;;7.10;4.90;;;;;;;;;;4994729;28;20204;-83
2021/09/19 08:43:25;;;;;;;7.23;4.90;;;;;;;;;;4992354;28;20229;-82
2021/09/19 08:45:53;;;;;;;7.70;4.87;;;;;;;;;;4992966;28;20212;-83
2021/09/19 08:48:21;;;;;;;6.50;4.73;;;;;;;;;;4993260;28;20205;-83
2021/09/19 08:50:50;;;;;;;5.43;3.90;;;;;;;;;;4994095;28;20220;-84
2021/09/19 08:53:19;;;;;;;9.43;4.53;;;;;;;;;;4993601;28;20259;-83
2021/09/19 08:55:46;;;;;;;6.90;4.87;;;;;;;;;;4993331;28;20704;-83
2021/09/19 08:58:14;;;;;;;7.20;4.23;;;;;;;;;;4991831;28;20264;-85
2021/09/19 09:00:42;;;;;;;6.50;4.40;;;;;;;;;;4991746;28;20213;-82
2021/09/19 09:03:11;;;;;;;6.20;4.17;;;;;;;;;;4990951;28;20229;-83
2021/09/19 09:05:38;;;;;;;6.77;4.40;;;;;;;;;;4993885;28;20215;-82
2021/09/19 09:08:06;;;;;;;6.17;4.50;;;;;;;;;;4993749;28;20666;-83
2021/09/19 09:10:37;;;;;;;6.23;4.43;;;;;;;;;;4990152;28;20240;-82
2021/09/19 09:13:05;;;;;;;6.70;4.50;;;;;;;;;;4993271;28;20232;-83
2021/09/19 09:15:33;;;;;;;6.20;4.67;;;;;;;;;;4989811;28;20231;-82
2021/09/19 09:18:04;;;;;;;6.43;3.97;;;;;;;;;;4990209;28;20217;-81
2021/09/19 09:20:46;;;;;;;6.07;3.97;;;;;;;;;;4993533;28;20209;-82
2021/09/19 09:23:21;;;;;;;7.93;4.33;;;;;;;;;;4993385;28;20271;-82
2021/09/19 09:26:00;;;;;;;11.23;4.63;;;;;;;;;;4993793;28;20268;-83
2021/09/19 09:28:39;;;;;;;5.10;3.53;;;;;;;;;;4993842;28;20604;-82
2021/09/19 09:31:06;;;;;;;9.93;4.10;;;;;;;;;;4992453;28;20256;-81
2021/09/19 09:33:33;;;;;;;5.63;3.90;;;;;;;;;;4992861;28;20309;-81
2021/09/19 09:36:07;;;;;;;5.87;4.03;;;;;;;;;;4992274;28;20225;-84
2021/09/19 09:38:34;;;;;;;5.37;3.80;;;;;;;;;;4995277;28;20206;-83
2021/09/19 09:41:03;;;;;;;5.37;3.63;;;;;;;;;;4996276;28;20235;-84
2021/09/19 09:43:30;;;;;;;8.57;4.10;;;;;;;;;;4993214;28;20321;-83
2021/09/19 09:46:09;;;;;;;7.30;3.70;;;;;;;;;;4992352;28;20220;-83
2021/09/19 09:48:39;;;;;;;5.70;3.60;;;;;;;;;;4993618;28;20627;-83
2021/09/19 09:51:19;;;;;;;6.10;3.83;;;;;;;;;;4991262;28;20209;-84
2021/09/19 09:53:53;;;;;;;7.10;3.53;;;;;;;;;;4993898;28;20347;-83
2021/09/19 09:56:21;;;;;;;5.83;3.43;;;;;;;;;;4994010;28;20228;-84
2021/09/19 09:58:50;;;;;;;7.00;3.40;;;;;;;;;;4997397;28;20592;-85
2021/09/19 10:01:17;;;;;;;7.13;3.97;;;;;;;;;;4995998;28;20224;-84
2021/09/19 10:03:45;;;;;;;5.83;3.50;;;;;;;;;;4995236;28;20272;-82
2021/09/19 10:06:12;;;;;;;5.17;3.50;;;;;;;;;;5007941;28;20870;-80
2021/09/19 10:08:39;;;;;;;5.97;3.80;;;;;;;;;;5009005;28;20189;-81
2021/09/19 10:11:08;;;;;;;5.37;3.33;;;;;;;;;;5005541;28;20235;-82
2021/09/19 10:13:44;;;;;;;6.23;3.83;;;;;;;;;;4994004;28;20316;-84
2021/09/19 10:16:11;;;;;;;6.63;3.33;;;;;;;;;;4992363;28;20205;-83
2021/09/19 10:18:39;;;;;;;4.90;3.17;;;;;;;;;;4993300;28;20239;-82
2021/09/19 10:21:06;;;;;;;6.67;3.37;;;;;;;;;;4991773;28;20264;-83
2021/09/19 10:23:35;;;;;;;4.27;2.93;;;;;;;;;;4992293;28;20859;-83
2021/09/19 10:26:07;;;;;;;4.93;2.60;;;;;;;;;;4981098;28;20291;-83
2021/09/19 10:28:40;;;;;;;4.03;2.90;;;;;;;;;;4983280;28;20220;-85
2021/09/19 10:31:21;;;;;;;6.40;2.83;;;;;;;;;;4983682;28;20209;-80
2021/09/19 10:33:52;;;;;;;4.37;2.90;;;;;;;;;;4983543;28;20206;-82
2021/09/19 10:36:24;;;;;;;3.93;2.63;;;;;;;;;;4982427;28;20217;-82
2021/09/19 10:38:52;;;;;;;3.07;2.60;;;;;;;;;;4984259;28;20211;-83
2021/09/19 10:41:20;;;;;;;6.00;2.63;;;;;;;;;;4986859;28;20208;-83
2021/09/19 10:43:53;;;;;;;4.70;2.83;;;;;;;;;;4984511;28;20226;-83
2021/09/19 10:46:38;;;;;;;3.83;2.57;;;;;;;;;;4987128;28;20280;-83
2021/09/19 10:49:14;;;;;;;3.97;2.63;;;;;;;;;;4983576;28;20240;-82
2021/09/19 10:52:07;;;;;;;5.87;2.70;;;;;;;;;;4985797;28;20229;-84
2021/09/19 10:54:44;;;;;;;5.77;2.47;;;;;;;;;;4983872;28;20213;-83
2021/09/19 10:57:15;;;;;;;3.80;2.60;;;;;;;;;;4986615;28;20632;-84
2021/09/19 11:00:01;;;;;;;3.00;2.43;;;;;;;;;;4983281;28;20277;-82
2021/09/19 11:02:30;;;;;;;4.50;2.70;;;;;;;;;;4986025;28;20299;-83
2021/09/19 11:05:12;;;;;;;2.37;1.90;;;;;;;;;;4986265;28;20209;-84
2021/09/19 11:07:42;;;;;;;2.67;2.07;;;;;;;;;;4987507;28;20241;-82
2021/09/19 11:10:09;;;;;;;3.53;2.40;;;;;;;;;;4986685;28;20709;-83
2021/09/19 11:12:42;;;;;;;3.07;2.23;;;;;;;;;;4989994;28;20229;-83
2021/09/19 11:15:10;;;;;;;3.50;2.20;;;;;;;;;;4983538;28;20616;-83
2021/09/19 11:17:44;;;;;;;5.73;2.40;;;;;;;;;;4989072;28;20213;-84
2021/09/19 11:20:31;;;;;;;3.40;2.30;;;;;;;;;;4991920;28;20221;-83
2021/09/19 11:23:18;;;;;;;3.23;2.53;;;;;;;;;;4993486;28;20228;-85
2021/09/19 11:25:45;;;;;;;3.17;2.67;;;;;;;;;;4992217;28;20236;-84
2021/09/19 11:28:13;;;;;;;5.77;2.67;;;;;;;;;;4992541;28;20245;-85
2021/09/19 11:30:40;;;;;;;4.23;3.10;;;;;;;;;;4994384;28;20677;-85
2021/09/19 11:33:12;;;;;;;4.70;3.30;;;;;;;;;;4994031;28;20256;-84
2021/09/19 11:35:40;;;;;;;6.27;3.10;;;;;;;;;;4993068;28;20260;-85
2021/09/19 11:38:07;;;;;;;5.23;3.40;;;;;;;;;;4992966;28;20236;-83
2021/09/19 11:40:34;;;;;;;4.43;3.20;;;;;;;;;;4994779;28;20201;-86
2021/09/19 11:43:07;;;;;;;6.63;3.27;;;;;;;;;;4992718;28;20292;-84
2021/09/19 11:45:35;;;;;;;7.77;3.50;;;;;;;;;;4994460;28;20205;-81
2021/09/19 11:48:02;;;;;;;6.10;3.10;;;;;;;;;;4999337;28;20273;-81
2021/09/19 11:50:36;;;;;;;6.13;3.37;;;;;;;;;;5009172;28;20213;-81
2021/09/19 11:53:05;;;;;;;4.67;3.47;;;;;;;;;;5013022;28;20221;-81
2021/09/19 11:55:33;;;;;;;7.93;3.13;;;;;;;;;;5005164;28;20197;-84
2021/09/19 11:58:00;;;;;;;4.83;3.40;;;;;;;;;;4998445;28;20235;-82
2021/09/19 12:00:30;;;;;;;4.67;3.10;;;;;;;;;;4995778;28;20204;-84
2021/09/19 12:02:58;;;;;;;7.87;3.37;;;;;;;;;;4996843;28;20731;-83
2021/09/19 12:05:25;;;;;;;3.97;2.87;;;;;;;;;;4995908;28;20236;-84
2021/09/19 12:07:53;;;;;;;4.13;3.10;;;;;;;;;;4994264;28;20308;-83
2021/09/19 12:10:24;;;;;;;5.30;3.10;;;;;;;;;;4993878;28;20225;-84
2021/09/19 12:12:51;;;;;;;5.13;2.90;;;;;;;;;;4993748;28;20220;-82
2021/09/19 12:15:24;;;;;;;4.00;3.07;;;;;;;;;;4995645;28;20316;-84
2021/09/19 12:18:03;;;;;;;4.23;2.80;;;;;;;;;;4994198;28;20209;-83
2021/09/19 12:20:31;;;;;;;7.67;3.57;;;;;;;;;;4995306;28;20212;-83
2021/09/19 12:23:13;;;;;;;4.17;3.07;;;;;;;;;;4996221;28;20232;-82
2021/09/19 12:25:46;;;;;;;8.57;3.60;;;;;;;;;;4996304;28;20200;-84
2021/09/19 12:28:20;;;;;;;5.33;3.63;;;;;;;;;;4997269;28;20547;-84
2021/09/19 12:30:47;;;;;;;9.90;3.83;;;;;;;;;;4995879;28;20231;-82
2021/09/19 12:33:14;;;;;;;5.80;3.60;;;;;;;;;;4995391;28;20244;-83
2021/09/19 12:35:42;;;;;;;4.43;3.23;;;;;;;;;;4992329;28;20236;-84
2021/09/19 12:38:13;;;;;;;4.50;3.20;;;;;;;;;;4995262;28;20225;-83
2021/09/19 12:40:40;;;;;;;5.50;3.63;;;;;;;;;;4993238;28;20559;-83
2021/09/19 12:43:10;;;;;;;6.77;3.70;;;;;;;;;;4996146;28;20267;-85
2021/09/19 12:45:38;;;;;;;5.73;3.90;;;;;;;;;;4996238;28;20592;-82
2021/09/19 12:48:07;;;;;;;6.27;3.70;;;;;;;;;;4993655;28;20708;-84
2021/09/19 12:50:35;;;;;;;4.80;3.50;;;;;;;;;;4995862;28;20279;-83
2021/09/19 12:53:02;;;;;;;5.63;3.50;;;;;;;;;;4993788;28;20230;-82
2021/09/19 12:55:30;;;;;;;4.80;3.70;;;;;;;;;;4995002;28;20296;-82
2021/09/19 12:57:57;;;;;;;6.13;3.50;;;;;;;;;;4994291;28;20239;-83
2021/09/19 13:00:27;;;;;;;5.63;3.80;;;;;;;;;;4994949;28;20220;-83
2021/09/19 13:02:55;;;;;;;6.47;3.67;;;;;;;;;;4993571;28;20312;-82
2021/09/19 13:05:22;;;;;;;5.43;3.67;;;;;;;;;;4995421;28;20225;-83
2021/09/19 13:07:49;;;;;;;5.20;3.33;;;;;;;;;;4994976;28;20211;-83
2021/09/19 13:10:17;;;;;;;5.00;3.50;;;;;;;;;;4995661;28;21002;-82
2021/09/19 13:12:44;;;;;;;5.23;3.50;;;;;;;;;;4994230;28;20244;-85
2021/09/19 13:15:11;;;;;;;5.60;3.73;;;;;;;;;;4996598;28;20229;-84
2021/09/19 13:17:40;;;;;;;6.13;3.80;;;;;;;;;;4994781;28;20236;-83
2021/09/19 13:20:07;;;;;;;4.93;3.97;;;;;;;;;;4993215;28;20277;-85
2021/09/19 13:22:35;;;;;;;5.80;3.40;;;;;;;;;;4996248;28;20293;-83
2021/09/19 13:25:02;;;;;;;4.87;3.60;;;;;;;;;;4994533;28;20580;-83
2021/09/19 13:27:29;;;;;;;4.97;3.67;;;;;;;;;;4994116;28;20652;-84
2021/09/19 13:29:56;;;;;;;6.03;3.70;;;;;;;;;;4994735;28;20232;-82
2021/09/19 13:32:23;;;;;;;12.20;3.70;;;;;;;;;;4999788;28;20255;-82
2021/09/19 13:34:52;;;;;;;5.30;3.70;;;;;;;;;;5006665;28;20189;-82
2021/09/19 13:37:20;;;;;;;5.33;3.90;;;;;;;;;;5010173;28;20184;-81
2021/09/19 13:39:48;;;;;;;6.17;3.83;;;;;;;;;;4997978;28;20271;-84
2021/09/19 13:42:15;;;;;;;9.00;3.77;;;;;;;;;;4995175;28;20220;-83
2021/09/19 13:44:42;;;;;;;4.77;3.67;;;;;;;;;;4988980;28;20205;-82
2021/09/19 13:47:09;;;;;;;5.47;3.87;;;;;;;;;;4989772;28;20212;-83
2021/09/19 13:49:36;;;;;;;6.17;4.50;;;;;;;;;;4983929;28;20229;-83
2021/09/19 13:52:05;;;;;;;5.87;3.80;;;;;;;;;;4982781;28;20233;-82
2021/09/19 13:54:33;;;;;;;20.27;4.33;;;;;;;;;;4990173;28;20197;-83
2021/09/19 13:57:00;;;;;;;6.83;3.63;;;;;;;;;;4993696;28;20300;-84
2021/09/19 13:59:27;;;;;;;5.30;3.97;;;;;;;;;;4994522;28;20291;-84
2021/09/19 14:01:57;;;;;;;5.83;3.73;;;;;;;;;;4992071;28;20268;-85
2021/09/19 14:04:24;;;;;;;6.03;3.83;;;;;;;;;;4988585;28;20205;-83
2021/09/19 14:06:52;;;;;;;6.13;3.60;;;;;;;;;;4983961;28;20209;-81
2021/09/19 14:09:21;;;;;;;5.53;3.70;;;;;;;;;;4985926;28;20208;-83
2021/09/19 14:11:48;;;;;;;4.63;3.13;;;;;;;;;;4987006;28;20312;-80
2021/09/19 14:14:16;;;;;;;5.23;3.40;;;;;;;;;;4988130;28;20268;-81
2021/09/19 14:16:43;;;;;;;7.00;3.30;;;;;;;;;;4985354;28;20216;-82
2021/09/19 14:19:10;;;;;;;4.87;3.10;;;;;;;;;;4986661;28;20728;-82
2021/09/19 14:21:37;;;;;;;6.17;3.30;;;;;;;;;;4986431;28;20246;-82
2021/09/19 14:24:06;;;;;;;6.43;3.27;;;;;;;;;;4983941;28;20236;-82
2021/09/19 14:26:34;;;;;;;8.00;3.37;;;;;;;;;;4983303;28;20212;-83
2021/09/19 14:29:02;;;;;;;5.70;3.50;;;;;;;;;;4987312;28;20409;-81
2021/09/19 14:31:29;;;;;;;6.60;3.33;;;;;;;;;;4981010;28;20795;-83
2021/09/19 14:33:56;;;;;;;6.87;3.40;;;;;;;;;;4989382;28;20292;-83
2021/09/19 14:36:23;;;;;;;5.73;3.30;;;;;;;;;;4986942;28;20213;-83
2021/09/19 14:38:50;;;;;;;4.13;2.93;;;;;;;;;;4989351;28;20673;-83
2021/09/19 14:41:18;;;;;;;7.70;3.40;;;;;;;;;;4982323;28;20263;-83
2021/09/19 14:43:46;;;;;;;6.60;2.97;;;;;;;;;;4986549;28;20292;-84
2021/09/19 14:46:13;;;;;;;4.07;3.00;;;;;;;;;;4985486;28;20233;-83
2021/09/19 14:48:41;;;;;;;4.93;3.40;;;;;;;;;;4987912;28;20209;-84